Time;durP1;ratioP1;P1;durP2;ratioP2;P2;SDS_P1;SDS_P2;PMS_P1;PMS_P2;Temp;Humidity;BMP_temperature;BMP_pressure;BME280_temperature;BME280_humidity;BME280_pressure;Samples;Min_cycle;Max_cycle;Signal;HPM_P1;HPM_P2
2022/06/21 00:01:33;;;;;;;;;;;;;;;11.96;100.00;101663.19;5260196;28;19923;-80
2022/06/21 00:04:04;;;;;;;;;;;;;;;11.95;100.00;101666.94;5259843;28;19916;-80
2022/06/21 00:06:34;;;;;;;;;;;;;;;11.90;100.00;101664.16;5260689;28;19908;-79
2022/06/21 00:09:05;;;;;;;;;;;;;;;11.86;100.00;101669.22;5259784;28;19912;-80
2022/06/21 00:11:35;;;;;;;;;;;;;;;11.80;100.00;101659.41;5274640;28;19908;-80
2022/06/21 00:14:05;;;;;;;;;;;;;;;11.77;100.00;101662.59;5258532;28;19912;-80
2022/06/21 00:16:36;;;;;;;;;;;;;;;11.73;100.00;101662.22;5260160;28;19912;-80
2022/06/21 00:19:10;;;;;;;;;;;;;;;11.70;100.00;101659.19;5258771;28;19918;-80
2022/06/21 00:21:40;;;;;;;;;;;;;;;11.65;100.00;101656.38;5258311;28;19914;-80
2022/06/21 00:24:11;;;;;;;;;;;;;;;11.55;100.00;101654.31;5274462;28;19912;-80
2022/06/21 00:26:42;;;;;;;;;;;;;;;11.53;100.00;101651.06;5259376;28;19962;-79
2022/06/21 00:29:13;;;;;;;;;;;;;;;11.48;100.00;101646.38;5259047;28;19954;-79
2022/06/21 00:31:47;;;;;;;;;;;;;;;11.46;100.00;101628.75;5258552;28;19908;-80
2022/06/21 00:34:20;;;;;;;;;;;;;;;11.47;100.00;101619.56;5259286;28;19919;-80
2022/06/21 00:36:51;;;;;;;;;;;;;;;11.47;100.00;101628.50;5258921;28;19908;-80
2022/06/21 00:39:21;;;;;;;;;;;;;;;11.47;100.00;101622.28;5257368;28;19912;-81
2022/06/21 00:41:56;;;;;;;;;;;;;;;11.47;100.00;101624.97;5258458;28;19916;-80
2022/06/21 00:44:35;;;;;;;;;;;;;;;11.43;100.00;101619.22;5258562;28;19935;-80
2022/06/21 00:47:22;;;;;;;;;;;;;;;11.42;100.00;101628.41;5260430;28;19918;-80
2022/06/21 00:49:54;;;;;;;;;;;;;;;11.41;100.00;101617.81;5266719;28;19915;-80
2022/06/21 00:52:44;;;;;;;;;;;;;;;11.40;100.00;101625.13;5274291;28;19912;-79
2022/06/21 00:55:18;;;;;;;;;;;;;;;11.36;100.00;101632.06;5261736;28;19947;-80
2022/06/21 00:57:52;;;;;;;;;;;;;;;11.34;100.00;101638.78;5265994;28;19908;-80
2022/06/21 01:00:32;;;;;;;;;;;;;;;11.28;100.00;101639.75;5263105;28;19930;-80
2022/06/21 01:03:22;;;;;;;;;;;;;;;11.24;100.00;101652.13;5260534;28;20263;-79
2022/06/21 01:05:53;;;;;;;;;;;;;;;11.21;100.00;101644.50;5258817;28;19909;-80
2022/06/21 01:08:26;;;;;;;;;;;;;;;11.15;100.00;101638.97;5273939;28;20007;-80
2022/06/21 01:10:57;;;;;;;;;;;;;;;11.10;100.00;101638.88;5258202;28;19908;-80
2022/06/21 01:13:29;;;;;;;;;;;;;;;11.07;100.00;101639.34;5257228;28;19909;-81
2022/06/21 01:15:59;;;;;;;;;;;;;;;11.06;100.00;101642.28;5274246;28;20285;-80
2022/06/21 01:18:30;;;;;;;;;;;;;;;10.99;100.00;101641.59;5258666;28;19908;-81
2022/06/21 01:21:02;;;;;;;;;;;;;;;10.97;100.00;101627.53;5257199;28;19908;-79
2022/06/21 01:23:39;;;;;;;;;;;;;;;10.95;100.00;101635.06;5258300;28;19999;-82
2022/06/21 01:26:21;;;;;;;;;;;;;;;10.92;100.00;101641.75;5257825;28;19922;-81
2022/06/21 01:28:51;;;;;;;;;;;;;;;10.91;100.00;101634.72;5257108;28;19915;-79
2022/06/21 01:31:21;;;;;;;;;;;;;;;10.88;100.00;101637.91;5274780;28;20397;-81
2022/06/21 01:33:52;;;;;;;;;;;;;;;10.81;100.00;101631.78;5257733;28;20408;-81
2022/06/21 01:36:24;;;;;;;;;;;;;;;10.79;100.00;101636.63;5275180;28;19909;-82
2022/06/21 01:38:57;;;;;;;;;;;;;;;10.83;100.00;101622.41;5258879;28;19912;-81
2022/06/21 01:41:31;;;;;;;;;;;;;;;10.88;100.00;101618.16;5258151;28;19919;-81
2022/06/21 01:44:04;;;;;;;;;;;;;;;10.91;100.00;101615.81;5257843;28;19912;-81
2022/06/21 01:46:34;;;;;;;;;;;;;;;10.90;100.00;101618.75;5257685;28;19913;-82
2022/06/21 01:49:10;;;;;;;;;;;;;;;10.85;100.00;101618.63;5258577;28;19975;-81
2022/06/21 01:51:47;;;;;;;;;;;;;;;10.77;100.00;101626.03;5256866;28;19980;-81
2022/06/21 01:54:19;;;;;;;;;;;;;;;10.66;100.00;101608.00;5257342;28;19959;-82
2022/06/21 01:56:50;;;;;;;;;;;;;;;10.61;100.00;101610.59;5257938;28;19976;-81
2022/06/21 01:59:26;;;;;;;;;;;;;;;10.58;100.00;101602.97;5258255;28;20006;-81
2022/06/21 02:02:02;;;;;;;;;;;;;;;10.59;100.00;101588.41;5258077;28;20313;-80
2022/06/21 02:04:35;;;;;;;;;;;;;;;10.57;100.00;101577.00;5272934;28;19930;-81
2022/06/21 02:07:07;;;;;;;;;;;;;;;10.59;100.00;101579.47;5256747;28;19913;-81
2022/06/21 02:09:41;;;;;;;;;;;;;;;10.60;100.00;101576.53;5259196;28;19908;-81
2022/06/21 02:12:13;;;;;;;;;;;;;;;10.58;100.00;101562.44;5254083;28;20279;-81
2022/06/21 02:14:45;;;;;;;;;;;;;;;10.57;100.00;101563.50;5258797;28;19913;-81
2022/06/21 02:17:19;;;;;;;;;;;;;;;10.55;100.00;101565.63;5260293;28;19935;-81
2022/06/21 02:19:52;;;;;;;;;;;;;;;10.53;100.00;101556.13;5264674;28;19935;-78
2022/06/21 02:22:24;;;;;;;;;;;;;;;10.47;100.00;101549.78;5261742;28;19908;-79
2022/06/21 02:24:55;;;;;;;;;;;;;;;10.45;100.00;101555.41;5260408;28;19912;-80
2022/06/21 02:27:28;;;;;;;;;;;;;;;10.43;100.00;101557.53;5258005;28;19919;-80
2022/06/21 02:29:59;;;;;;;;;;;;;;;10.38;100.00;101564.72;5257626;28;19908;-80
2022/06/21 02:32:35;;;;;;;;;;;;;;;10.34;100.00;101574.34;5258307;28;19908;-80
2022/06/21 02:35:15;;;;;;;;;;;;;;;10.30;100.00;101568.59;5261660;28;19917;-79
2022/06/21 02:37:45;;;;;;;;;;;;;;;10.28;100.00;101565.31;5261904;28;19958;-79
2022/06/21 02:40:18;;;;;;;;;;;;;;;10.25;100.00;101575.75;5262097;28;19909;-80
2022/06/21 02:42:51;;;;;;;;;;;;;;;10.23;100.00;101588.66;5262244;28;19912;-80
2022/06/21 02:45:21;;;;;;;;;;;;;;;10.21;100.00;101580.81;5261990;28;19965;-79
2022/06/21 02:47:53;;;;;;;;;;;;;;;10.20;100.00;101578.34;5259892;28;19908;-79
2022/06/21 02:50:34;;;;;;;;;;;;;;;10.19;100.00;101587.47;5261631;28;19915;-80
2022/06/21 02:53:07;;;;;;;;;;;;;;;10.14;100.00;101582.78;5261855;28;19913;-80
2022/06/21 02:55:41;;;;;;;;;;;;;;;10.13;100.00;101586.53;5289486;22;19923;-64
2022/06/21 02:58:35;;;;;;;;;;;;;;;10.11;100.00;101583.25;5265983;28;19912;-64
2022/06/21 03:01:09;;;;;;;;;;;;;;;10.06;100.00;101581.28;5251626;28;19912;-64
2022/06/21 03:03:40;;;;;;;;;;;;;;;10.07;100.00;101579.38;5251441;28;19915;-65
2022/06/21 03:06:12;;;;;;;;;;;;;;;10.09;100.00;101583.50;5268539;28;20371;-64
2022/06/21 03:08:57;;;;;;;;;;;;;;;10.11;100.00;101581.34;5251855;28;20379;-64
2022/06/21 03:11:29;;;;;;;;;;;;;;;10.12;100.00;101572.22;5269848;28;19908;-64
2022/06/21 03:14:02;;;;;;;;;;;;;;;10.14;100.00;101561.19;5269509;28;19912;-65
2022/06/21 03:16:33;;;;;;;;;;;;;;;10.15;100.00;101563.66;5268178;28;20007;-64
2022/06/21 03:19:05;;;;;;;;;;;;;;;10.16;100.00;101561.75;5268430;28;19914;-65
2022/06/21 03:21:35;;;;;;;;;;;;;;;10.13;100.00;101552.25;5267844;28;19912;-65
2022/06/21 03:24:10;;;;;;;;;;;;;;;10.11;100.00;101561.66;5267962;28;19960;-64
2022/06/21 03:26:41;;;;;;;;;;;;;;;10.10;100.00;101560.03;5268003;28;20008;-65
2022/06/21 03:29:11;;;;;;;;;;;;;;;10.14;100.00;101548.50;5251069;28;19912;-65
2022/06/21 03:31:48;;;;;;;;;;;;;;;10.20;100.00;101541.38;5251192;28;19961;-65
2022/06/21 03:34:20;;;;;;;;;;;;;;;10.25;100.00;101537.97;5250783;28;20026;-65
2022/06/21 03:36:51;;;;;;;;;;;;;;;10.27;100.00;101538.56;5249601;28;19908;-64
2022/06/21 03:41:42;;;;;;;;;;;;;;;10.25;100.00;101541.50;5267991;28;19915;-64
2022/06/21 03:42:14;;;;;;;;;;;;;;;10.27;100.00;101546.66;5269150;28;19908;-65
2022/06/21 03:45:04;;;;;;;;;;;;;;;10.33;100.00;101554.63;5267923;28;19922;-64
2022/06/21 03:47:37;;;;;;;;;;;;;;;10.37;100.00;101541.50;5250293;28;20007;-64
2022/06/21 03:50:14;;;;;;;;;;;;;;;10.41;100.00;101553.44;5267618;28;20283;-64
2022/06/21 03:52:49;;;;;;;;;;;;;;;10.43;100.00;101546.72;5267617;28;20038;-64
2022/06/21 03:55:35;;;;;;;;;;;;;;;10.46;100.00;101545.44;5250158;28;20002;-65
2022/06/21 03:58:09;;;;;;;;;;;;;;;10.49;100.00;101539.56;5267534;28;19954;-65
2022/06/21 04:00:49;;;;;;;;;;;;;;;10.49;100.00;101536.88;5250535;28;19908;-65
2022/06/21 04:03:25;;;;;;;;;;;;;;;10.49;100.00;101540.38;5267664;28;19907;-65
2022/06/21 04:06:02;;;;;;;;;;;;;;;10.51;100.00;101531.22;5267523;28;19919;-65
2022/06/21 04:08:36;;;;;;;;;;;;;;;10.49;100.00;101526.88;5250774;28;19908;-65
2022/06/21 04:11:14;;;;;;;;;;;;;;;10.51;100.00;101520.41;5250389;28;19962;-65
2022/06/21 04:13:48;;;;;;;;;;;;;;;10.52;100.00;101522.88;5248964;28;19908;-64
2022/06/21 04:16:30;;;;;;;;;;;;;;;10.55;100.00;101527.81;5249745;28;20364;-64
2022/06/21 04:19:08;;;;;;;;;;;;;;;10.60;100.00;101524.41;5269004;28;19941;-65
2022/06/21 04:21:43;;;;;;;;;;;;;;;10.64;100.00;101526.38;5268614;28;19908;-65
2022/06/21 04:24:26;;;;;;;;;;;;;;;10.71;100.00;101526.22;5245584;28;19912;-64
2022/06/21 04:27:15;;;;;;;;;;;;;;;10.92;100.00;101522.03;5229502;28;19916;-64
2022/06/21 04:29:49;;;;;;;;;;;;;;;11.33;100.00;101524.38;5245659;28;19908;-65
2022/06/21 04:32:19;;;;;;;;;;;;;;;11.74;100.00;101520.47;5229259;28;20360;-66
2022/06/21 04:35:16;;;;;;;;;;;;;;;12.09;100.00;101514.78;5228829;28;20011;-65
2022/06/21 04:37:53;;;;;;;;;;;;;;;12.43;100.00;101506.53;5233188;28;20003;-65
2022/06/21 04:40:26;;;;;;;;;;;;;;;12.75;100.00;101517.47;5239276;28;20391;-66
2022/06/21 04:43:07;;;;;;;;;;;;;;;13.08;100.00;101508.31;5245486;28;19908;-65
2022/06/21 04:45:43;;;;;;;;;;;;;;;13.38;100.00;101511.34;5246215;28;19915;-65
2022/06/21 04:48:13;;;;;;;;;;;;;;;13.60;100.00;101513.13;5249573;28;20007;-65
2022/06/21 04:50:49;;;;;;;;;;;;;;;13.72;100.00;101516.47;5267762;28;20336;-66
2022/06/21 04:53:31;;;;;;;;;;;;;;;13.76;100.00;101518.41;5249450;28;20003;-66
2022/06/21 04:56:13;;;;;;;;;;;;;;;13.88;100.00;101523.63;5267664;28;20299;-66
2022/06/21 04:58:44;;;;;;;;;;;;;;;13.92;100.00;101518.50;5249162;28;19915;-66
2022/06/21 05:01:29;;;;;;;;;;;;;;;13.79;100.00;101528.75;5249279;28;19908;-66
2022/06/21 05:04:03;;;;;;;;;;;;;;;13.67;100.00;101527.28;5246427;28;19908;-66
2022/06/21 05:06:34;;;;;;;;;;;;;;;13.52;100.00;101534.25;5267373;28;19908;-66
2022/06/21 05:09:04;;;;;;;;;;;;;;;13.47;100.00;101531.50;5249201;28;19915;-66
2022/06/21 05:11:35;;;;;;;;;;;;;;;13.57;100.00;101532.66;5267064;28;19907;-66
2022/06/21 05:14:08;;;;;;;;;;;;;;;13.56;100.00;101522.88;5249013;28;19923;-66
2022/06/21 05:16:41;;;;;;;;;;;;;;;13.37;100.00;101531.41;5249079;28;19908;-66
2022/06/21 05:19:19;;;;;;;;;;;;;;;13.25;100.00;101538.09;5248339;28;19907;-65
2022/06/21 05:21:55;;;;;;;;;;;;;;;13.30;100.00;101540.81;5250016;28;19999;-67
2022/06/21 05:24:25;;;;;;;;;;;;;;;13.37;100.00;101550.38;5248952;28;20007;-67
2022/06/21 05:26:55;;;;;;;;;;;;;;;13.45;100.00;101543.69;5248964;28;20497;-67
2022/06/21 05:29:30;;;;;;;;;;;;;;;13.50;100.00;101541.84;5249193;28;20356;-66
2022/06/21 05:32:03;;;;;;;;;;;;;;;13.55;100.00;101541.06;5246724;28;19908;-67
2022/06/21 05:34:37;;;;;;;;;;;;;;;13.52;100.00;101536.97;5247086;28;20402;-67
2022/06/21 05:37:13;;;;;;;;;;;;;;;13.56;100.00;101531.03;5248822;28;19908;-67
2022/06/21 05:39:46;;;;;;;;;;;;;;;13.69;100.00;101538.72;5247835;28;19951;-67
2022/06/21 05:42:18;;;;;;;;;;;;;;;13.79;100.00;101552.38;5248881;28;19965;-68
2022/06/21 05:44:53;;;;;;;;;;;;;;;13.81;100.00;101544.78;5265610;28;19908;-67
2022/06/21 05:47:41;;;;;;;;;;;;;;;13.98;100.00;101544.63;5247459;28;20007;-67
2022/06/21 05:50:18;;;;;;;;;;;;;;;14.09;100.00;101551.75;5248471;28;19908;-67
2022/06/21 05:52:51;;;;;;;;;;;;;;;14.15;100.00;101562.38;5249201;28;20371;-67
2022/06/21 05:55:25;;;;;;;;;;;;;;;14.24;100.00;101540.16;5245301;28;19923;-67
2022/06/21 05:58:28;;;;;;;;;;;;;;;14.38;100.00;101546.75;5264032;28;19919;-66
2022/06/21 06:01:01;;;;;;;;;;;;;;;14.55;100.00;101544.69;5217651;28;20356;-66
2022/06/21 06:03:36;;;;;;;;;;;;;;;14.67;100.00;101537.13;5258033;28;19919;-66
2022/06/21 06:06:12;;;;;;;;;;;;;;;14.69;100.00;101540.41;5228446;28;19960;-64
2022/06/21 06:08:44;;;;;;;;;;;;;;;14.78;100.00;101560.53;5249830;28;19931;-65
2022/06/21 06:11:21;;;;;;;;;;;;;;;14.89;100.00;101553.22;5250512;28;19915;-65
2022/06/21 06:13:53;;;;;;;;;;;;;;;15.07;100.00;101557.34;5232303;28;19916;-64
2022/06/21 06:16:23;;;;;;;;;;;;;;;15.30;100.00;101551.41;5232504;28;19908;-63
2022/06/21 06:18:59;;;;;;;;;;;;;;;15.52;100.00;101538.34;5232512;28;20004;-64
2022/06/21 06:21:43;;;;;;;;;;;;;;;15.75;100.00;101525.28;5232470;28;19908;-64
2022/06/21 06:24:20;;;;;;;;;;;;;;;15.97;100.00;101538.59;5250281;28;19909;-61
2022/06/21 06:26:59;;;;;;;;;;;;;;;16.12;100.00;101542.13;5232365;28;19908;-62
2022/06/21 06:29:42;;;;;;;;;;;;;;;16.17;100.00;101555.72;5250201;28;19927;-62
2022/06/21 06:32:18;;;;;;;;;;;;;;;16.31;100.00;101550.50;5231988;28;19908;-62
2022/06/21 06:34:50;;;;;;;;;;;;;;;16.32;100.00;101556.78;5249786;28;20057;-62
2022/06/21 06:37:25;;;;;;;;;;;;;;;16.52;100.00;101568.41;5232359;28;19908;-65
2022/06/21 06:39:57;;;;;;;;;;;;;;;16.63;100.00;101562.94;5232284;28;20288;-62
2022/06/21 06:42:29;;;;;;;;;;;;;;;16.79;100.00;101564.50;5231966;28;19916;-62
2022/06/21 06:45:03;;;;;;;;;;;;;;;16.98;100.00;101564.72;5231469;28;19930;-62
2022/06/21 06:47:37;;;;;;;;;;;;;;;17.09;100.00;101556.16;5232091;28;19912;-61
2022/06/21 06:50:17;;;;;;;;;;;;;;;17.09;100.00;101561.63;5250084;28;20418;-61
2022/06/21 06:52:54;;;;;;;;;;;;;;;17.36;100.00;101566.63;5232281;28;19989;-61
2022/06/21 06:55:24;;;;;;;;;;;;;;;17.63;100.00;101576.25;5249227;28;19923;-61
2022/06/21 06:57:54;;;;;;;;;;;;;;;18.04;100.00;101568.53;5231945;28;20356;-61
2022/06/21 07:00:28;;;;;;;;;;;;;;;18.45;100.00;101568.94;5249772;28;19920;-61
2022/06/21 07:03:05;;;;;;;;;;;;;;;18.66;100.00;101566.78;5231604;28;19912;-62
2022/06/21 07:05:38;;;;;;;;;;;;;;;18.55;100.00;101561.38;5231209;28;19912;-62
2022/06/21 07:08:14;;;;;;;;;;;;;;;18.64;100.00;101558.88;5231641;28;19908;-61
2022/06/21 07:10:47;;;;;;;;;;;;;;;18.70;100.00;101563.16;5231369;28;19908;-62
2022/06/21 07:13:18;;;;;;;;;;;;;;;18.49;100.00;101559.00;5249120;28;20436;-62
2022/06/21 07:15:49;;;;;;;;;;;;;;;18.60;100.00;101557.81;5231160;28;20006;-61
2022/06/21 07:18:25;;;;;;;;;;;;;;;18.83;100.00;101545.19;5230596;28;19908;-62
2022/06/21 07:20:56;;;;;;;;;;;;;;;18.96;100.00;101547.22;5246462;28;20389;-61
2022/06/21 07:23:27;;;;;;;;;;;;;;;18.84;100.00;101549.56;5267244;28;19911;-61
2022/06/21 07:26:01;;;;;;;;;;;;;;;18.67;100.00;101552.00;5272500;28;19958;-61
2022/06/21 07:28:40;;;;;;;;;;;;;;;18.86;100.00;101550.09;5272914;28;19914;-63
2022/06/21 07:31:13;;;;;;;;;;;;;;;19.51;100.00;101545.56;5272541;28;19957;-62
2022/06/21 07:33:47;;;;;;;;;;;;;;;19.85;100.00;101537.03;5272182;28;19957;-61
2022/06/21 07:36:39;;;;;;;;;;;;;;;20.17;100.00;101538.91;5272380;28;19907;-61
2022/06/21 07:39:15;;;;;;;;;;;;;;;20.17;100.00;101541.66;5272536;28;20025;-61
2022/06/21 07:41:48;;;;;;;;;;;;;;;20.11;100.00;101537.38;5272776;28;20291;-61
2022/06/21 07:44:26;;;;;;;;;;;;;;;19.87;100.00;101525.78;5272725;28;19995;-63
2022/06/21 07:47:00;;;;;;;;;;;;;;;19.82;100.00;101526.69;5272306;28;19954;-61
2022/06/21 07:49:36;;;;;;;;;;;;;;;19.90;100.00;101519.69;5272377;28;19956;-62
2022/06/21 07:52:11;;;;;;;;;;;;;;;20.18;99.29;101515.03;5290439;28;19974;-62
2022/06/21 07:54:45;;;;;;;;;;;;;;;20.19;97.73;101520.22;5272266;28;20362;-62
2022/06/21 07:57:21;;;;;;;;;;;;;;;19.92;97.70;101511.97;5272041;28;19931;-62
2022/06/21 07:59:59;;;;;;;;;;;;;;;19.65;99.93;101500.94;5271978;28;19995;-63
2022/06/21 08:08:21;;;;;;;;;;;;;;;19.46;100.00;101488.09;5289348;28;19907;-62
2022/06/21 08:11:11;;;;;;;;;;;;;;;19.66;100.00;101488.88;5271636;28;19907;-62
2022/06/21 08:13:41;;;;;;;;;;;;;;;19.70;98.58;101482.47;5271619;28;19908;-62
2022/06/21 08:16:16;;;;;;;;;;;;;;;19.80;99.91;101482.31;5289947;28;20272;-62
2022/06/21 08:19:09;;;;;;;;;;;;;;;19.96;97.51;101491.03;5271875;28;19911;-62
2022/06/21 08:21:45;;;;;;;;;;;;;;;19.89;94.84;101479.69;5271838;28;20386;-62
2022/06/21 08:24:26;;;;;;;;;;;;;;;19.98;97.23;101471.53;5271415;28;19907;-62
2022/06/21 08:27:15;;;;;;;;;;;;;;;20.26;95.80;101477.84;5271915;28;19918;-62
2022/06/21 08:29:56;;;;;;;;;;;;;;;20.13;94.00;101472.06;5288360;28;19953;-62
2022/06/21 08:32:34;;;;;;;;;;;;;;;20.20;91.15;101464.25;5271688;28;20293;-63
2022/06/21 08:35:15;;;;;;;;;;;;;;;20.35;89.68;101462.28;5270166;28;19918;-62
2022/06/21 08:38:09;;;;;;;;;;;;;;;20.63;87.86;101458.41;5271495;28;19907;-62
2022/06/21 08:40:48;;;;;;;;;;;;;;;20.77;87.41;101452.88;5262930;28;19939;-62
2022/06/21 08:43:31;;;;;;;;;;;;;;;21.29;86.11;101445.06;5270951;28;20435;-62
2022/06/21 08:46:11;;;;;;;;;;;;;;;21.56;85.07;101434.72;5271432;28;20406;-62
2022/06/21 08:48:45;;;;;;;;;;;;;;;21.62;83.37;101431.81;5271679;28;20367;-63
2022/06/21 08:51:18;;;;;;;;;;;;;;;21.66;81.96;101427.28;5271253;28;19915;-63
2022/06/21 08:53:58;;;;;;;;;;;;;;;21.65;79.25;101428.44;5271435;28;19988;-67
2022/06/21 08:56:37;;;;;;;;;;;;;;;21.38;78.49;101421.97;5278243;22;19963;-60
2022/06/21 08:59:14;;;;;;;;;;;;;;;21.07;79.14;101426.63;5279179;28;19928;-59
2022/06/21 09:01:45;;;;;;;;;;;;;;;20.88;80.53;101419.38;5270872;28;19915;-61
2022/06/21 09:04:34;;;;;;;;;;;;;;;21.07;81.69;101421.13;5268516;28;19907;-60
2022/06/21 09:07:13;;;;;;;;;;;;;;;21.26;79.87;101413.53;5271387;28;19908;-61
2022/06/21 09:09:53;;;;;;;;;;;;;;;21.20;79.90;101425.72;5253219;28;19918;-61
2022/06/21 09:12:42;;;;;;;;;;;;;;;21.33;80.48;101416.66;5253103;28;19908;-61
2022/06/21 09:15:18;;;;;;;;;;;;;;;21.55;79.57;101422.09;5270387;28;19912;-61
2022/06/21 09:17:53;;;;;;;;;;;;;;;21.25;80.10;101406.41;5273420;28;19908;-60
2022/06/21 09:20:23;;;;;;;;;;;;;;;21.13;80.23;101406.13;5255404;28;19908;-64
2022/06/21 09:23:03;;;;;;;;;;;;;;;21.15;79.36;101417.63;5254343;28;19908;-62
2022/06/21 09:25:43;;;;;;;;;;;;;;;21.21;78.64;101403.47;5254800;28;19915;-60
2022/06/21 09:28:26;;;;;;;;;;;;;;;21.15;78.17;101404.69;5256011;28;19908;-60
2022/06/21 09:31:07;;;;;;;;;;;;;;;21.02;79.25;101396.56;5255042;28;19908;-61
2022/06/21 09:33:46;;;;;;;;;;;;;;;21.17;80.79;101402.44;5257070;28;19915;-61
2022/06/21 09:36:30;;;;;;;;;;;;;;;21.18;80.10;101406.00;5257437;28;19912;-61
2022/06/21 09:39:13;;;;;;;;;;;;;;;21.27;80.34;101403.34;5257319;28;19919;-62
2022/06/21 09:41:58;;;;;;;;;;;;;;;21.33;79.31;101419.41;5256443;28;19912;-63
2022/06/21 09:44:36;;;;;;;;;;;;;;;21.34;78.40;101415.53;5257175;28;19998;-61
2022/06/21 09:47:07;;;;;;;;;;;;;;;21.41;76.61;101413.13;5274447;28;19908;-61
2022/06/21 09:49:50;;;;;;;;;;;;;;;21.38;75.57;101412.94;5275313;28;19934;-62
2022/06/21 09:52:39;;;;;;;;;;;;;;;21.08;76.97;101407.06;5257540;28;19908;-62
2022/06/21 09:55:27;;;;;;;;;;;;;;;20.92;78.31;101418.75;5273268;28;19919;-62
2022/06/21 09:58:07;;;;;;;;;;;;;;;20.88;78.61;101424.88;5257818;28;19912;-62
2022/06/21 10:00:57;;;;;;;;;;;;;;;21.11;78.57;101427.59;5276121;28;19915;-62
2022/06/21 10:03:35;;;;;;;;;;;;;;;21.27;77.44;101420.66;5256775;28;19908;-62
2022/06/21 10:06:11;;;;;;;;;;;;;;;21.52;77.10;101421.91;5256498;28;19957;-62
2022/06/21 10:08:54;;;;;;;;;;;;;;;21.63;75.36;101425.19;5256983;28;19912;-61
2022/06/21 10:11:26;;;;;;;;;;;;;;;21.42;74.70;101430.41;5258159;28;19968;-65
2022/06/21 10:14:07;;;;;;;;;;;;;;;21.22;76.30;101440.00;5256946;28;20296;-62
2022/06/21 10:16:43;;;;;;;;;;;;;;;21.42;76.90;101433.16;5255631;28;19908;-62
2022/06/21 10:19:23;;;;;;;;;;;;;;;21.52;75.44;101441.16;5276334;28;19908;-61
2022/06/21 10:22:12;;;;;;;;;;;;;;;21.49;75.01;101439.84;5257418;28;19908;-60
2022/06/21 10:24:53;;;;;;;;;;;;;;;21.69;74.38;101437.66;5274255;28;19931;-61
2022/06/21 10:27:33;;;;;;;;;;;;;;;21.64;73.70;101429.56;5276058;28;19915;-61
2022/06/21 10:30:03;;;;;;;;;;;;;;;21.54;72.82;101430.66;5256872;28;19908;-62
2022/06/21 10:32:33;;;;;;;;;;;;;;;21.61;73.13;101430.19;5257834;28;19914;-61
2022/06/21 10:35:13;;;;;;;;;;;;;;;21.59;71.90;101429.72;5258182;28;19912;-62
2022/06/21 10:37:46;;;;;;;;;;;;;;;21.33;73.71;101430.38;5258574;28;19951;-61
2022/06/21 10:40:20;;;;;;;;;;;;;;;21.36;74.02;101421.50;5276870;28;20360;-61
2022/06/21 10:43:02;;;;;;;;;;;;;;;21.69;74.12;101421.97;5258712;28;19908;-62
2022/06/21 10:45:39;;;;;;;;;;;;;;;21.49;73.27;101423.34;5258265;28;19908;-61
2022/06/21 10:48:15;;;;;;;;;;;;;;;21.34;74.87;101423.75;5258253;28;19908;-62
2022/06/21 10:51:04;;;;;;;;;;;;;;;21.09;75.52;101433.41;5257687;28;19914;-61
2022/06/21 10:53:34;;;;;;;;;;;;;;;21.16;76.37;101420.06;5259019;28;19940;-60
2022/06/21 10:58:57;;;;;;;;;;;;;;;21.12;74.64;101435.53;5279828;28;19915;-61
2022/06/21 11:01:27;;;;;;;;;;;;;;;21.06;75.16;101436.00;5261669;28;19961;-60
2022/06/21 11:04:16;;;;;;;;;;;;;;;21.16;74.91;101425.53;5260899;28;19907;-62
2022/06/21 11:06:50;;;;;;;;;;;;;;;21.35;76.81;101425.38;5279581;28;19908;-62
2022/06/21 11:09:24;;;;;;;;;;;;;;;21.43;73.09;101415.53;5262276;28;19912;-61
2022/06/21 11:15:01;;;;;;;;;;;;;;;21.25;71.94;101400.09;5280927;28;19951;-62
2022/06/21 11:17:37;;;;;;;;;;;;;;;21.15;73.22;101403.88;5262361;28;19912;-61
2022/06/21 11:20:20;;;;;;;;;;;;;;;21.11;73.99;101411.13;5261881;28;19914;-62
2022/06/21 11:23:08;;;;;;;;;;;;;;;21.23;74.45;101401.22;5261516;28;19908;-60
2022/06/21 11:25:53;;;;;;;;;;;;;;;21.62;76.01;101404.34;5280109;28;19908;-61
2022/06/21 11:28:27;;;;;;;;;;;;;;;21.87;73.30;101400.88;5263169;28;19908;-63
2022/06/21 11:31:05;;;;;;;;;;;;;;;21.88;73.38;101406.06;5263384;28;19958;-62
2022/06/21 11:33:42;;;;;;;;;;;;;;;21.64;73.23;101407.59;5262110;28;20363;-61
2022/06/21 11:36:21;;;;;;;;;;;;;;;21.62;73.93;101405.16;5262124;28;20455;-62
2022/06/21 11:39:01;;;;;;;;;;;;;;;21.61;75.49;101409.03;5276292;28;19947;-62
2022/06/21 11:44:23;;;;;;;;;;;;;;;21.39;75.78;101406.31;5278745;28;19915;-60
2022/06/21 11:47:01;;;;;;;;;;;;;;;21.32;75.86;101411.47;5261419;28;19907;-62
2022/06/21 11:49:35;;;;;;;;;;;;;;;21.11;74.68;101411.13;5261944;28;19912;-61
2022/06/21 11:52:25;;;;;;;;;;;;;;;21.01;75.19;101409.47;5263153;28;19912;-62
2022/06/21 11:55:16;;;;;;;;;;;;;;;21.02;73.96;101413.03;5259712;28;19934;-61
2022/06/21 11:57:56;;;;;;;;;;;;;;;20.69;74.22;101407.78;5259569;28;19915;-60
2022/06/21 12:00:53;;;;;;;;;;;;;;;20.42;75.52;101405.94;5260955;28;19914;-61
2022/06/21 12:03:29;;;;;;;;;;;;;;;20.34;76.89;101397.56;5236244;28;19953;-60
2022/06/21 12:06:20;;;;;;;;;;;;;;;20.42;77.55;101399.63;5260059;28;19908;-62
2022/06/21 12:08:58;;;;;;;;;;;;;;;20.31;78.01;101399.00;5260203;28;19972;-65
2022/06/21 12:11:35;;;;;;;;;;;;;;;20.36;78.42;101393.41;5243912;28;19919;-62
2022/06/21 12:14:13;;;;;;;;;;;;;;;20.28;79.39;101390.56;5278409;28;19922;-64
2022/06/21 12:17:06;;;;;;;;;;;;;;;20.21;80.37;101397.28;5260320;28;19908;-61
2022/06/21 12:19:44;;;;;;;;;;;;;;;20.16;79.05;101391.94;5258873;28;19912;-62
2022/06/21 12:22:27;;;;;;;;;;;;;;;20.12;78.65;101384.63;5259723;28;20002;-61
2022/06/21 12:24:57;;;;;;;;;;;;;;;20.03;79.49;101379.03;5260842;28;19933;-62
2022/06/21 12:27:28;;;;;;;;;;;;;;;19.94;78.43;101377.31;5276992;28;19908;-61
2022/06/21 12:30:13;;;;;;;;;;;;;;;19.88;78.80;101368.41;5259953;28;20298;-63
2022/06/21 12:32:44;;;;;;;;;;;;;;;19.94;79.28;101371.84;5259964;28;19930;-62
2022/06/21 12:35:16;;;;;;;;;;;;;;;19.98;79.27;101372.84;5259552;28;19912;-62
2022/06/21 12:37:51;;;;;;;;;;;;;;;19.96;78.30;101370.41;5259903;28;19915;-62
2022/06/21 12:40:36;;;;;;;;;;;;;;;19.90;77.92;101366.19;5276944;28;20268;-63
2022/06/21 12:43:15;;;;;;;;;;;;;;;19.83;77.47;101374.81;5276789;28;19955;-62
2022/06/21 12:45:48;;;;;;;;;;;;;;;19.72;76.84;101381.59;5258854;28;19922;-62
2022/06/21 12:48:22;;;;;;;;;;;;;;;19.63;77.17;101366.19;5277903;28;19908;-62
2022/06/21 12:51:04;;;;;;;;;;;;;;;19.69;77.79;101362.22;5259728;28;20006;-63
2022/06/21 12:53:43;;;;;;;;;;;;;;;19.73;77.84;101360.50;5258497;28;20271;-62
2022/06/21 12:56:13;;;;;;;;;;;;;;;19.63;78.07;101364.28;5277586;28;20006;-62
2022/06/21 12:58:50;;;;;;;;;;;;;;;19.64;78.83;101365.06;5258663;28;20362;-61
2022/06/21 13:01:43;;;;;;;;;;;;;;;19.66;79.89;101366.38;5277340;28;19972;-61
2022/06/21 13:04:23;;;;;;;;;;;;;;;19.71;80.72;101365.47;5249067;28;19923;-62
2022/06/21 13:07:18;;;;;;;;;;;;;;;19.81;81.29;101368.00;5259408;28;19908;-63
2022/06/21 13:10:00;;;;;;;;;;;;;;;19.91;81.04;101361.50;5276989;28;19918;-62
2022/06/21 13:12:37;;;;;;;;;;;;;;;19.79;80.72;101360.09;5259626;28;20485;-62
2022/06/21 13:15:18;;;;;;;;;;;;;;;19.58;81.37;101355.34;5257912;28;19912;-62
2022/06/21 13:17:57;;;;;;;;;;;;;;;19.57;82.10;101351.78;5258796;28;19947;-63
2022/06/21 13:20:37;;;;;;;;;;;;;;;19.66;85.19;101352.69;5257569;28;19918;-62
2022/06/21 13:23:19;;;;;;;;;;;;;;;19.77;83.57;101350.56;5258168;28;19908;-62
2022/06/21 13:25:50;;;;;;;;;;;;;;;19.73;84.05;101347.59;5258332;28;19960;-62
2022/06/21 13:28:23;;;;;;;;;;;;;;;19.69;84.33;101338.38;5258994;28;19978;-62
2022/06/21 13:30:57;;;;;;;;;;;;;;;19.78;84.49;101342.03;5258335;28;19915;-61
2022/06/21 13:33:27;;;;;;;;;;;;;;;19.79;84.78;101340.09;5258807;28;19908;-61